Time;durP1;ratioP1;P1;durP2;ratioP2;P2;SDS_P1;SDS_P2;PMS_P1;PMS_P2;Temp;Humidity;BMP_temperature;BMP_pressure;BME280_temperature;BME280_humidity;BME280_pressure;Samples;Min_cycle;Max_cycle;Signal;HPM_P1;HPM_P2
2021/12/25 00:01:48;;;;;;;4.93;4.43;;;7.80;99.90;;;;;;5028105;28;20209;-75
2021/12/25 00:04:16;;;;;;;4.85;4.35;;;7.90;99.90;;;;;;5028601;28;20229;-76
2021/12/25 00:06:42;;;;;;;4.95;4.45;;;7.80;99.90;;;;;;5028891;28;20202;-75
2021/12/25 00:09:09;;;;;;;5.57;4.15;;;7.80;99.90;;;;;;5028862;28;20205;-77
2021/12/25 00:11:36;;;;;;;4.22;3.83;;;7.80;99.90;;;;;;5028920;28;20198;-76
2021/12/25 00:14:10;;;;;;;4.80;4.15;;;7.80;99.90;;;;;;5033146;28;20695;-75
2021/12/25 00:16:37;;;;;;;5.03;4.10;;;7.80;99.90;;;;;;5037857;28;20680;-75
2021/12/25 00:19:04;;;;;;;5.15;4.65;;;7.70;99.90;;;;;;5046017;28;20205;-77
2021/12/25 00:21:32;;;;;;;7.60;4.60;;;7.80;99.90;;;;;;5038229;28;20202;-75
2021/12/25 00:23:59;;;;;;;5.60;4.80;;;7.80;99.90;;;;;;5029019;28;20284;-75
2021/12/25 00:26:39;;;;;;;6.13;4.70;;;7.80;99.90;;;;;;5027939;28;20630;-76
2021/12/25 00:29:29;;;;;;;5.18;4.68;;;7.80;99.90;;;;;;5027917;28;20209;-76
2021/12/25 00:32:08;;;;;;;5.57;4.13;;;7.80;99.90;;;;;;5028459;28;20229;-77
2021/12/25 00:34:35;;;;;;;5.35;4.20;;;7.80;99.90;;;;;;5027728;28;20230;-78
2021/12/25 00:37:04;;;;;;;4.93;4.45;;;7.80;99.90;;;;;;5027520;28;20225;-76
2021/12/25 00:39:31;;;;;;;4.60;4.20;;;7.90;99.90;;;;;;5028644;28;20610;-77
2021/12/25 00:41:58;;;;;;;6.22;5.30;;;7.90;99.90;;;;;;5027294;28;20213;-77
2021/12/25 00:44:25;;;;;;;4.97;4.45;;;7.90;99.90;;;;;;5028202;28;20225;-75
2021/12/25 00:46:52;;;;;;;6.63;5.13;;;7.80;99.90;;;;;;5027208;28;20198;-76
2021/12/25 00:49:19;;;;;;;5.28;4.70;;;7.80;99.90;;;;;;5027992;28;20206;-76
2021/12/25 00:51:46;;;;;;;6.28;4.10;;;7.80;99.90;;;;;;5026333;28;20580;-78
2021/12/25 00:54:15;;;;;;;5.10;4.60;;;7.90;99.90;;;;;;5027316;28;20716;-76
2021/12/25 00:56:42;;;;;;;6.03;4.82;;;7.80;99.90;;;;;;5027449;28;20528;-75
2021/12/25 00:59:09;;;;;;;5.03;4.40;;;7.80;99.90;;;;;;5027436;28;20665;-75
2021/12/25 01:01:36;;;;;;;7.70;5.18;;;7.80;99.90;;;;;;5026929;28;20202;-76
2021/12/25 01:04:03;;;;;;;5.50;5.00;;;7.80;99.90;;;;;;5027218;28;20221;-76
2021/12/25 01:06:29;;;;;;;5.88;5.28;;;7.80;99.90;;;;;;5027431;28;20210;-77
2021/12/25 01:08:56;;;;;;;7.05;4.70;;;7.80;99.90;;;;;;5027094;28;20545;-76
2021/12/25 01:11:27;;;;;;;6.03;4.82;;;7.80;99.90;;;;;;5026976;28;20600;-75
2021/12/25 01:14:00;;;;;;;5.38;4.70;;;7.80;99.90;;;;;;5027325;28;20607;-75
2021/12/25 01:16:54;;;;;;;5.55;4.90;;;7.80;99.90;;;;;;5027379;28;20210;-76
2021/12/25 01:19:40;;;;;;;8.02;5.25;;;7.80;99.90;;;;;;5027812;28;20280;-75
2021/12/25 01:22:34;;;;;;;6.38;5.35;;;7.80;99.90;;;;;;5026419;28;20299;-76
2021/12/25 01:30:37;;;;;;;6.22;5.43;;;7.70;99.90;;;;;;5027201;28;20279;-75
2021/12/25 01:38:56;;;;;;;7.18;5.47;;;7.80;99.90;;;;;;4994546;28;20713;-76
2021/12/25 01:41:52;;;;;;;6.10;5.50;;;7.70;99.90;;;;;;5025979;28;20221;-79
2021/12/25 01:50:08;;;;;;;6.85;5.60;;;7.60;99.90;;;;;;5012952;28;20297;-95
2021/12/25 01:52:37;;;;;;;5.95;5.35;;;7.60;99.90;;;;;;5014617;28;20222;-93
2021/12/25 01:55:07;;;;;;;7.50;5.72;;;7.60;99.90;;;;;;5015446;28;20213;-93
2021/12/25 01:57:35;;;;;;;5.53;4.93;;;7.60;99.90;;;;;;5035138;28;20222;-93
2021/12/25 02:00:09;;;;;;;6.63;5.50;;;7.60;99.90;;;;;;5004366;28;20218;-93
2021/12/25 02:02:36;;;;;;;6.93;5.93;;;7.60;99.90;;;;;;4998415;28;20226;-92
2021/12/25 02:05:04;;;;;;;8.38;5.65;;;7.50;99.90;;;;;;4997957;28;20669;-93
2021/12/25 02:07:31;;;;;;;6.68;5.97;;;7.50;99.90;;;;;;4997563;28;20257;-93
2021/12/25 02:09:58;;;;;;;6.28;5.53;;;7.50;99.90;;;;;;4998430;28;20210;-93
2021/12/25 02:12:25;;;;;;;6.40;5.78;;;7.50;99.90;;;;;;4997594;28;20233;-93
2021/12/25 02:14:52;;;;;;;6.15;5.53;;;7.50;99.90;;;;;;4997720;28;20199;-93
2021/12/25 02:17:26;;;;;;;7.60;5.40;;;7.50;99.90;;;;;;4997692;28;20222;-93
2021/12/25 02:20:11;;;;;;;6.00;5.10;;;7.50;99.90;;;;;;4997922;28;20195;-94
2021/12/25 02:22:42;;;;;;;6.43;5.82;;;7.50;99.90;;;;;;4997875;28;20234;-93
2021/12/25 02:25:08;;;;;;;12.73;5.53;;;7.50;99.90;;;;;;4998257;28;20203;-93
2021/12/25 02:27:37;;;;;;;6.28;5.07;;;7.50;99.90;;;;;;4998321;28;20213;-93
2021/12/25 02:30:06;;;;;;;5.63;5.13;;;7.50;99.90;;;;;;4997750;28;20209;-93
2021/12/25 02:32:33;;;;;;;6.97;6.03;;;7.50;99.90;;;;;;4996814;28;20281;-93
2021/12/25 02:35:00;;;;;;;5.63;5.13;;;7.50;99.90;;;;;;4997457;28;20207;-93
2021/12/25 02:37:29;;;;;;;7.32;5.28;;;7.50;99.90;;;;;;4996548;28;20314;-92
2021/12/25 02:39:56;;;;;;;6.13;5.30;;;7.60;99.90;;;;;;4997276;28;20218;-92
2021/12/25 02:42:23;;;;;;;5.85;5.25;;;7.60;99.90;;;;;;5011700;28;20295;-93
2021/12/25 02:44:49;;;;;;;5.13;4.55;;;7.60;99.90;;;;;;5016959;28;20195;-93
2021/12/25 02:47:20;;;;;;;5.75;4.32;;;7.50;99.90;;;;;;4996929;28;20211;-92
2021/12/25 02:49:48;;;;;;;5.03;4.45;;;7.60;99.90;;;;;;4995879;28;20218;-93
2021/12/25 02:52:15;;;;;;;6.32;4.22;;;7.60;99.90;;;;;;4996091;28;20234;-92
2021/12/25 02:54:45;;;;;;;5.13;4.63;;;7.60;99.90;;;;;;4997001;28;20210;-92
2021/12/25 02:57:12;;;;;;;5.70;4.20;;;7.60;99.90;;;;;;4996321;28;20199;-93
2021/12/25 02:59:39;;;;;;;5.32;4.10;;;7.70;99.90;;;;;;4996291;28;20215;-93
2021/12/25 03:02:08;;;;;;;6.55;4.18;;;7.70;99.90;;;;;;4996175;28;20215;-91
2021/12/25 03:04:37;;;;;;;4.68;4.20;;;7.60;99.90;;;;;;4996415;28;20211;-92
2021/12/25 03:07:05;;;;;;;5.30;4.20;;;7.60;99.90;;;;;;4996018;28;20212;-92
2021/12/25 03:09:32;;;;;;;5.30;3.92;;;7.60;99.90;;;;;;4996277;28;20691;-92
2021/12/25 03:12:02;;;;;;;4.68;3.90;;;7.50;99.90;;;;;;4996041;28;20206;-92
2021/12/25 03:14:38;;;;;;;5.97;4.57;;;7.50;99.90;;;;;;4996182;28;20259;-93
2021/12/25 03:17:05;;;;;;;4.97;4.05;;;7.50;99.90;;;;;;4995781;28;20215;-92
2021/12/25 03:19:34;;;;;;;5.22;4.05;;;7.50;99.90;;;;;;4998143;28;20203;-93
2021/12/25 03:22:02;;;;;;;3.78;3.45;;;7.50;99.90;;;;;;4996464;28;20289;-92
2021/12/25 03:24:30;;;;;;;4.30;3.80;;;7.50;99.90;;;;;;4996040;28;20593;-92
2021/12/25 03:26:57;;;;;;;4.68;3.92;;;7.40;99.90;;;;;;4996565;28;20207;-92
2021/12/25 03:29:27;;;;;;;4.43;3.95;;;7.40;99.90;;;;;;4996465;28;20211;-91
2021/12/25 03:31:56;;;;;;;4.47;4.07;;;7.40;99.90;;;;;;4995720;28;20202;-92
2021/12/25 03:34:23;;;;;;;4.68;4.10;;;7.50;99.90;;;;;;4996112;28;20199;-92
2021/12/25 03:36:50;;;;;;;7.32;4.97;;;7.50;99.90;;;;;;4996485;28;20213;-92
2021/12/25 03:39:17;;;;;;;5.03;4.35;;;7.50;99.90;;;;;;4996197;28;20219;-92
2021/12/25 03:41:44;;;;;;;6.25;4.80;;;7.50;99.90;;;;;;5000103;28;20234;-92
2021/12/25 03:44:11;;;;;;;4.50;3.80;;;7.60;99.90;;;;;;5008259;28;20241;-93
2021/12/25 03:46:40;;;;;;;4.03;3.63;;;7.60;99.90;;;;;;4999035;28;20206;-92
2021/12/25 03:49:27;;;;;;;4.20;3.20;;;7.60;99.90;;;;;;4995466;28;20203;-92
2021/12/25 03:57:40;;;;;;;5.47;2.70;;;7.60;99.90;;;;;;4995820;28;20202;-92
2021/12/25 04:00:08;;;;;;;5.70;2.90;;;7.70;99.90;;;;;;4995647;28;20227;-93
2021/12/25 04:02:50;;;;;;;3.75;3.10;;;7.70;99.90;;;;;;4997541;28;20226;-92
2021/12/25 04:05:19;;;;;;;2.55;2.35;;;7.70;99.90;;;;;;4999055;28;20652;-93
2021/12/25 04:10:37;;;;;;;3.17;2.63;;;7.70;99.90;;;;;;4994911;28;20668;-92
2021/12/25 04:13:06;;;;;;;2.60;2.40;;;7.80;99.90;;;;;;4998972;28;20223;-93
2021/12/25 04:15:34;;;;;;;3.53;3.20;;;7.80;99.90;;;;;;4998228;28;20203;-92
2021/12/25 04:18:03;;;;;;;3.50;2.80;;;7.80;99.90;;;;;;4998601;28;20215;-92
2021/12/25 04:20:31;;;;;;;2.97;2.67;;;7.80;99.90;;;;;;4998816;28;20210;-92
2021/12/25 04:23:02;;;;;;;3.72;2.88;;;7.70;99.90;;;;;;4998255;28;20250;-92
2021/12/25 04:25:32;;;;;;;3.58;2.90;;;7.70;99.90;;;;;;4999758;28;20214;-92
2021/12/25 04:28:03;;;;;;;2.90;2.70;;;7.70;99.90;;;;;;4999753;28;20203;-93
2021/12/25 04:30:40;;;;;;;5.10;2.67;;;7.70;99.90;;;;;;4998962;28;20259;-92
2021/12/25 04:42:42;;;;;;;3.55;2.97;;;7.60;99.90;;;;;;4997756;28;20229;-92
2021/12/25 04:50:14;;;;;;;3.58;3.28;;;7.50;99.90;;;;;;4998112;28;20175;-92
2021/12/25 05:04:29;;;;;;;5.50;3.90;;;7.40;99.90;;;;;;5012378;22;20222;-73
2021/12/25 05:06:57;;;;;;;4.45;3.80;;;7.40;99.90;;;;;;5012206;28;20603;-73
2021/12/25 05:09:24;;;;;;;5.15;4.07;;;7.30;99.90;;;;;;5012532;28;20285;-73
2021/12/25 05:11:50;;;;;;;5.90;4.35;;;7.30;99.90;;;;;;5011434;28;20682;-73
2021/12/25 05:14:17;;;;;;;5.82;4.32;;;7.30;99.90;;;;;;5012567;28;20218;-73
2021/12/25 05:16:44;;;;;;;5.65;4.43;;;7.30;99.90;;;;;;5012032;28;20214;-73
2021/12/25 05:19:11;;;;;;;4.78;4.20;;;7.30;99.90;;;;;;5012364;28;20229;-73
2021/12/25 05:21:38;;;;;;;4.88;3.75;;;7.30;99.90;;;;;;5011752;28;20209;-72
2021/12/25 05:24:06;;;;;;;5.22;4.18;;;7.20;99.90;;;;;;5011849;28;20223;-73
2021/12/25 05:26:33;;;;;;;4.47;3.88;;;7.20;99.90;;;;;;5012337;28;20572;-73
2021/12/25 05:29:01;;;;;;;5.53;4.40;;;7.20;99.90;;;;;;5011479;28;20222;-72
2021/12/25 05:31:30;;;;;;;5.32;4.80;;;7.10;99.90;;;;;;5011756;28;20221;-72
2021/12/25 05:33:57;;;;;;;5.20;4.70;;;7.10;99.90;;;;;;5011640;28;20245;-72
2021/12/25 05:36:27;;;;;;;5.95;4.85;;;7.20;99.90;;;;;;5011683;28;20202;-72
2021/12/25 05:38:56;;;;;;;6.00;5.10;;;7.10;99.90;;;;;;5011725;28;20226;-72
2021/12/25 05:41:25;;;;;;;7.00;5.38;;;7.20;99.90;;;;;;5010997;28;20725;-72
2021/12/25 05:43:52;;;;;;;7.40;6.63;;;7.10;99.90;;;;;;5011550;28;20229;-72
2021/12/25 05:46:19;;;;;;;7.97;5.70;;;7.10;99.90;;;;;;5011769;28;20209;-72
2021/12/25 05:48:48;;;;;;;6.53;5.40;;;7.10;99.90;;;;;;5011167;28;20206;-72
2021/12/25 05:51:16;;;;;;;7.20;6.38;;;7.20;99.90;;;;;;5011274;28;20684;-72
2021/12/25 05:53:43;;;;;;;7.55;6.40;;;7.10;99.90;;;;;;5010991;28;20230;-73
2021/12/25 05:56:09;;;;;;;6.28;5.68;;;7.10;99.90;;;;;;5011438;28;20669;-72
2021/12/25 05:58:38;;;;;;;7.53;6.65;;;7.10;99.90;;;;;;5011283;28;20230;-72
2021/12/25 06:01:06;;;;;;;9.18;6.13;;;7.20;99.90;;;;;;5010609;28;20209;-73
2021/12/25 06:03:33;;;;;;;7.55;6.03;;;7.20;99.90;;;;;;5011280;28;20235;-72
2021/12/25 06:06:00;;;;;;;8.43;6.78;;;7.10;99.90;;;;;;5010955;28;20211;-72
2021/12/25 06:08:26;;;;;;;7.00;5.68;;;7.20;99.90;;;;;;5011448;28;20202;-72
2021/12/25 06:10:53;;;;;;;6.95;6.25;;;7.20;99.90;;;;;;5011159;28;20202;-73
2021/12/25 06:13:21;;;;;;;7.93;6.85;;;7.20;99.90;;;;;;5011156;28;20587;-72
2021/12/25 06:15:51;;;;;;;10.93;6.95;;;7.20;99.90;;;;;;5011174;28;20712;-72
2021/12/25 06:18:18;;;;;;;6.50;5.72;;;7.20;99.90;;;;;;5011671;28;20254;-72
2021/12/25 06:20:45;;;;;;;7.30;6.50;;;7.20;99.90;;;;;;5010827;28;20213;-72
2021/12/25 06:23:12;;;;;;;8.70;6.20;;;7.10;99.90;;;;;;5010707;28;20596;-73
2021/12/25 06:25:39;;;;;;;8.95;6.28;;;7.20;99.90;;;;;;5010318;28;20764;-72
2021/12/25 06:28:06;;;;;;;6.85;6.15;;;7.20;99.90;;;;;;5010727;28;20202;-72
2021/12/25 06:30:33;;;;;;;9.07;6.47;;;7.20;99.90;;;;;;5010576;28;20894;-73
2021/12/25 06:33:02;;;;;;;8.77;6.45;;;7.20;99.90;;;;;;5010149;28;20329;-73
2021/12/25 06:35:28;;;;;;;5.75;5.15;;;7.20;99.90;;;;;;5010820;28;20206;-72
2021/12/25 06:37:55;;;;;;;8.80;6.65;;;7.20;99.90;;;;;;5010424;28;20202;-72
2021/12/25 06:40:22;;;;;;;6.57;5.80;;;7.20;99.90;;;;;;5010876;28;20222;-72
2021/12/25 06:42:49;;;;;;;7.00;5.20;;;7.20;99.90;;;;;;5009761;28;20257;-73
2021/12/25 06:45:16;;;;;;;7.55;6.05;;;7.20;99.90;;;;;;5010852;28;20210;-72
2021/12/25 06:47:43;;;;;;;6.28;5.55;;;7.20;99.90;;;;;;5010367;28;20213;-72
2021/12/25 06:50:12;;;;;;;7.43;5.90;;;7.30;99.90;;;;;;5010502;28;20198;-72
2021/12/25 06:52:41;;;;;;;7.57;6.70;;;7.30;99.90;;;;;;5010115;28;20203;-72
2021/12/25 06:55:09;;;;;;;11.45;6.03;;;7.30;99.90;;;;;;5010416;28;20629;-72
2021/12/25 06:57:46;;;;;;;7.50;5.93;;;7.40;99.90;;;;;;5010533;28;20209;-73
2021/12/25 07:00:14;;;;;;;8.65;6.25;;;7.40;99.90;;;;;;5010315;28;20701;-72
2021/12/25 07:02:40;;;;;;;6.90;5.35;;;7.50;99.90;;;;;;5010040;28;20583;-73
2021/12/25 07:05:08;;;;;;;6.30;5.10;;;7.50;99.90;;;;;;5010578;28;20249;-73
2021/12/25 07:07:36;;;;;;;6.90;5.28;;;7.50;99.90;;;;;;5010347;28;20202;-72
2021/12/25 07:10:04;;;;;;;7.40;5.50;;;7.50;99.90;;;;;;5010387;28;20669;-73
2021/12/25 07:12:35;;;;;;;6.47;4.75;;;7.60;99.90;;;;;;5009595;28;20203;-74
2021/12/25 07:15:02;;;;;;;6.18;4.93;;;7.60;99.90;;;;;;5010777;28;20307;-73
2021/12/25 07:17:28;;;;;;;6.55;5.50;;;7.70;99.90;;;;;;5010575;28;20229;-74
2021/12/25 07:19:55;;;;;;;6.60;5.47;;;7.70;99.90;;;;;;5010054;28;20313;-74
2021/12/25 07:22:22;;;;;;;5.28;4.75;;;7.80;99.90;;;;;;5009961;28;20202;-74
2021/12/25 07:24:50;;;;;;;5.22;4.65;;;7.80;99.90;;;;;;5009894;28;20209;-75
2021/12/25 07:27:17;;;;;;;5.32;4.45;;;7.80;99.90;;;;;;5010492;28;20205;-75
2021/12/25 07:29:44;;;;;;;5.25;3.60;;;7.90;99.90;;;;;;5010434;28;20203;-75
2021/12/25 07:32:10;;;;;;;4.05;3.65;;;7.90;99.90;;;;;;5009682;28;20214;-74
2021/12/25 07:34:37;;;;;;;4.60;3.83;;;7.90;99.90;;;;;;5010332;28;20229;-74
2021/12/25 07:37:04;;;;;;;4.90;3.83;;;8.00;99.90;;;;;;5011469;28;20202;-74
2021/12/25 07:39:31;;;;;;;6.05;3.70;;;8.10;99.90;;;;;;5013961;28;20229;-75
2021/12/25 07:41:59;;;;;;;3.95;3.55;;;8.10;99.90;;;;;;5013330;28;20207;-75
2021/12/25 07:44:26;;;;;;;4.47;3.13;;;8.10;99.90;;;;;;5049662;22;20217;-92
2021/12/25 07:46:54;;;;;;;5.20;4.10;;;8.10;99.90;;;;;;5068729;28;20208;-95
2021/12/25 07:49:21;;;;;;;6.80;4.20;;;8.20;99.90;;;;;;5060099;28;20190;-92
2021/12/25 07:51:49;;;;;;;3.97;3.58;;;8.20;99.90;;;;;;5059830;28;20196;-92
2021/12/25 07:54:17;;;;;;;6.82;4.10;;;8.20;99.90;;;;;;5060208;28;20273;-94
2021/12/25 07:56:44;;;;;;;4.75;3.92;;;8.20;99.90;;;;;;5060175;28;20192;-95
2021/12/25 07:59:12;;;;;;;5.07;4.32;;;8.20;99.90;;;;;;5060146;28;20228;-93
2021/12/25 08:01:43;;;;;;;4.20;3.80;;;8.20;99.90;;;;;;5058596;28;20241;-93
2021/12/25 08:04:10;;;;;;;8.57;5.60;;;8.20;99.90;;;;;;5058386;28;20293;-93
2021/12/25 08:06:39;;;;;;;5.50;4.38;;;8.20;99.90;;;;;;5057850;28;20186;-91
2021/12/25 08:09:06;;;;;;;4.85;4.38;;;8.20;99.90;;;;;;5077125;28;20189;-93
2021/12/25 08:11:34;;;;;;;6.65;4.30;;;8.20;99.90;;;;;;5079835;28;20216;-91
2021/12/25 08:14:07;;;;;;;5.80;5.20;;;8.20;99.90;;;;;;5079846;28;20228;-92
2021/12/25 08:16:38;;;;;;;7.60;5.50;;;8.20;99.90;;;;;;5079852;28;20189;-91
2021/12/25 08:19:06;;;;;;;5.80;5.18;;;8.20;99.90;;;;;;5079724;28;20239;-92
2021/12/25 08:21:34;;;;;;;7.60;4.80;;;8.30;99.90;;;;;;5077798;28;20208;-91
2021/12/25 08:24:01;;;;;;;5.05;4.55;;;8.20;99.90;;;;;;5076505;28;20225;-91
2021/12/25 08:26:28;;;;;;;6.07;5.47;;;8.20;99.90;;;;;;5078807;28;20189;-91
2021/12/25 08:28:55;;;;;;;6.60;5.20;;;8.30;99.90;;;;;;5079405;28;20212;-90
2021/12/25 08:31:22;;;;;;;7.47;5.05;;;8.30;99.90;;;;;;5078327;28;20193;-91
2021/12/25 08:33:51;;;;;;;7.25;5.03;;;8.20;99.90;;;;;;5077908;28;20205;-91
2021/12/25 08:36:18;;;;;;;5.57;4.53;;;8.30;99.90;;;;;;5078920;28;20193;-90
2021/12/25 08:38:45;;;;;;;6.65;5.47;;;8.30;99.90;;;;;;5078781;28;20193;-90
2021/12/25 08:41:12;;;;;;;9.52;5.70;;;8.20;99.90;;;;;;5078475;28;20193;-90
2021/12/25 08:43:46;;;;;;;5.60;4.63;;;8.20;99.90;;;;;;5075125;28;20221;-92
2021/12/25 08:46:17;;;;;;;7.95;4.95;;;8.30;99.90;;;;;;5077497;28;20192;-91
2021/12/25 08:48:45;;;;;;;8.32;6.28;;;8.30;99.90;;;;;;5078015;28;20269;-93
2021/12/25 08:51:13;;;;;;;5.82;5.18;;;8.40;99.90;;;;;;5077259;28;20201;-91
2021/12/25 08:53:40;;;;;;;7.43;5.45;;;8.40;99.90;;;;;;5069501;22;20299;-71
2021/12/25 08:56:07;;;;;;;5.68;4.55;;;8.40;99.90;;;;;;5030759;28;20321;-72
2021/12/25 08:58:35;;;;;;;5.95;4.60;;;8.40;99.90;;;;;;5031035;28;20709;-71
2021/12/25 09:01:07;;;;;;;5.10;4.65;;;8.40;99.90;;;;;;5035176;28;20226;-72
2021/12/25 09:03:33;;;;;;;5.82;4.65;;;8.40;99.90;;;;;;5031612;28;20239;-72
2021/12/25 09:06:02;;;;;;;5.55;4.57;;;8.40;99.90;;;;;;5030292;28;20208;-70
2021/12/25 09:08:31;;;;;;;5.35;4.25;;;8.40;99.90;;;;;;5030307;28;20201;-70
2021/12/25 09:10:59;;;;;;;5.28;4.18;;;8.50;99.90;;;;;;5029961;28;20232;-72
2021/12/25 09:13:26;;;;;;;4.70;4.30;;;8.60;99.90;;;;;;5030282;28;20300;-72
2021/12/25 09:15:54;;;;;;;7.38;4.82;;;8.60;99.90;;;;;;5030446;28;20205;-72
2021/12/25 09:18:21;;;;;;;5.35;4.20;;;8.70;99.90;;;;;;5029964;28;20293;-72
2021/12/25 09:20:48;;;;;;;5.18;4.10;;;8.70;99.90;;;;;;5026147;28;20559;-71
2021/12/25 09:23:17;;;;;;;5.68;4.35;;;8.70;99.90;;;;;;5030029;28;20225;-72
2021/12/25 09:25:46;;;;;;;6.30;4.30;;;8.70;99.90;;;;;;5030663;28;20205;-71
2021/12/25 09:28:13;;;;;;;4.22;3.80;;;8.70;99.90;;;;;;5030201;28;20704;-73
2021/12/25 09:30:42;;;;;;;4.45;3.80;;;8.60;99.90;;;;;;5028409;28;20201;-71
2021/12/25 09:33:09;;;;;;;4.30;3.90;;;8.60;99.90;;;;;;5030351;28;20221;-72
2021/12/25 09:35:37;;;;;;;4.75;3.97;;;8.60;99.90;;;;;;5029770;28;20252;-71
2021/12/25 09:38:04;;;;;;;6.90;4.40;;;8.60;99.90;;;;;;5027538;28;20202;-72
2021/12/25 09:40:33;;;;;;;4.07;3.55;;;8.60;99.90;;;;;;5030368;28;20222;-72
2021/12/25 09:43:03;;;;;;;4.03;3.63;;;8.60;99.90;;;;;;5029644;28;20233;-72
2021/12/25 09:45:30;;;;;;;4.47;4.07;;;8.60;99.90;;;;;;5030871;28;20206;-72
2021/12/25 09:47:58;;;;;;;9.18;4.75;;;8.60;99.90;;;;;;5030005;28;20202;-72
2021/12/25 09:50:25;;;;;;;4.38;3.70;;;8.60;99.90;;;;;;5030380;28;20198;-71
2021/12/25 09:52:53;;;;;;;4.70;3.83;;;8.70;99.90;;;;;;5029467;28;20767;-72
2021/12/25 09:55:20;;;;;;;6.63;3.85;;;8.70;99.90;;;;;;5026628;28;20244;-72
2021/12/25 09:57:47;;;;;;;4.68;3.90;;;8.70;99.90;;;;;;5027278;28;20628;-72
2021/12/25 10:00:18;;;;;;;4.30;3.22;;;8.80;99.90;;;;;;5027759;28;20316;-71
2021/12/25 10:02:48;;;;;;;3.75;3.40;;;8.80;99.90;;;;;;5029621;28;20222;-74
2021/12/25 10:05:24;;;;;;;4.22;3.78;;;8.80;99.90;;;;;;5025589;28;20201;-72
2021/12/25 10:08:02;;;;;;;3.72;3.35;;;8.80;99.90;;;;;;5029314;28;20255;-73
2021/12/25 10:10:39;;;;;;;5.95;3.63;;;8.80;99.90;;;;;;5029833;28;20259;-70
2021/12/25 10:13:18;;;;;;;5.28;3.70;;;8.80;99.90;;;;;;5028592;28;20221;-71
2021/12/25 10:15:47;;;;;;;4.43;3.72;;;8.80;99.90;;;;;;5029677;28;20599;-73
2021/12/25 10:18:14;;;;;;;3.70;3.40;;;8.80;99.90;;;;;;5028419;28;20208;-73
2021/12/25 10:20:41;;;;;;;3.45;3.13;;;8.90;99.90;;;;;;5029755;28;20213;-72
2021/12/25 10:23:13;;;;;;;5.43;3.30;;;8.90;99.90;;;;;;5030336;28;20218;-73
2021/12/25 10:25:46;;;;;;;5.63;3.88;;;8.90;99.90;;;;;;5025490;28;20201;-73
2021/12/25 10:28:14;;;;;;;4.65;3.10;;;9.00;99.90;;;;;;5029498;28;20300;-70
2021/12/25 10:30:49;;;;;;;3.45;2.67;;;9.10;99.90;;;;;;5028427;28;20221;-70
2021/12/25 10:33:33;;;;;;;2.60;2.40;;;9.20;99.90;;;;;;5029039;28;20731;-71
2021/12/25 10:36:04;;;;;;;2.80;2.60;;;9.20;99.90;;;;;;5029203;28;20205;-71
2021/12/25 10:38:31;;;;;;;3.25;2.40;;;9.20;99.90;;;;;;5028686;28;20206;-72
2021/12/25 10:41:17;;;;;;;4.35;2.10;;;9.30;99.90;;;;;;5021881;28;20359;-70
2021/12/25 10:43:44;;;;;;;3.45;2.63;;;9.40;99.90;;;;;;5024323;28;20217;-72
2021/12/25 10:46:12;;;;;;;2.47;2.22;;;9.70;99.90;;;;;;5028308;28;20201;-72
2021/12/25 10:48:39;;;;;;;4.05;2.05;;;10.00;99.90;;;;;;5027998;28;20276;-71
2021/12/25 10:51:07;;;;;;;2.08;1.90;;;10.50;99.90;;;;;;5027185;28;20197;-72
2021/12/25 10:53:40;;;;;;;3.10;1.77;;;11.10;99.90;;;;;;5027963;28;20226;-73
2021/12/25 10:56:10;;;;;;;3.47;2.03;;;11.60;99.90;;;;;;5027665;28;20758;-72
2021/12/25 10:58:38;;;;;;;2.13;1.80;;;12.10;99.90;;;;;;5027940;28;20832;-73
2021/12/25 11:01:07;;;;;;;4.07;1.73;;;12.50;99.90;;;;;;5027309;28;20226;-73
2021/12/25 11:03:38;;;;;;;2.58;1.70;;;13.00;99.90;;;;;;5027287;28;20232;-71
2021/12/25 11:06:07;;;;;;;2.50;1.90;;;14.10;99.90;;;;;;5028177;28;20206;-72
2021/12/25 11:08:35;;;;;;;2.40;1.73;;;15.10;99.90;;;;;;5027981;28;20720;-72
2021/12/25 11:11:05;;;;;;;2.80;2.00;;;16.00;99.90;;;;;;5028050;28;20514;-72
2021/12/25 11:13:35;;;;;;;2.23;1.77;;;16.20;99.90;;;;;;5032044;28;20506;-71
2021/12/25 11:16:15;;;;;;;1.87;1.70;;;15.70;99.90;;;;;;5031782;28;20987;-71
2021/12/25 11:19:01;;;;;;;2.33;1.73;;;14.90;99.90;;;;;;5031059;28;20490;-73
2021/12/25 11:21:28;;;;;;;1.70;1.60;;;14.50;99.90;;;;;;5030052;28;20571;-72
2021/12/25 11:24:08;;;;;;;3.63;2.10;;;14.20;99.90;;;;;;5030960;28;20490;-71
2021/12/25 11:26:35;;;;;;;2.25;1.38;;;13.60;99.90;;;;;;5031498;28;20545;-73
2021/12/25 11:29:04;;;;;;;1.90;1.65;;;12.90;99.90;;;;;;5031456;28;20198;-72
2021/12/25 11:31:31;;;;;;;1.80;1.40;;;12.50;99.90;;;;;;5030266;28;20216;-72
2021/12/25 11:34:00;;;;;;;2.85;1.90;;;12.30;99.90;;;;;;5031512;28;20221;-73
2021/12/25 11:36:27;;;;;;;3.10;1.80;;;11.90;99.90;;;;;;5031329;28;20209;-72
2021/12/25 11:38:54;;;;;;;1.90;1.70;;;11.60;99.90;;;;;;5032104;28;20259;-72
2021/12/25 11:41:27;;;;;;;1.92;1.70;;;11.40;99.90;;;;;;5030717;28;20221;-72
2021/12/25 11:43:54;;;;;;;2.65;1.83;;;11.20;99.90;;;;;;5031104;28;20313;-72
2021/12/25 11:46:23;;;;;;;2.03;1.20;;;11.00;99.90;;;;;;5031763;28;20258;-72
2021/12/25 11:49:05;;;;;;;5.00;2.00;;;10.80;99.90;;;;;;5031355;28;20752;-72
2021/12/25 11:51:32;;;;;;;3.10;1.85;;;10.70;99.90;;;;;;5030630;28;20221;-72
2021/12/25 11:54:14;;;;;;;2.25;2.05;;;10.60;99.90;;;;;;5030617;28;20247;-72
2021/12/25 11:57:04;;;;;;;2.85;2.50;;;10.50;99.90;;;;;;5031624;28;20193;-73
2021/12/25 11:59:44;;;;;;;2.78;1.77;;;10.50;99.90;;;;;;5029205;28;20202;-73
2021/12/25 12:02:11;;;;;;;1.75;1.65;;;10.40;99.90;;;;;;5030562;28;20190;-72
2021/12/25 12:04:40;;;;;;;2.03;1.85;;;10.40;99.90;;;;;;5031120;28;20229;-72
2021/12/25 12:07:13;;;;;;;2.13;1.92;;;10.30;99.90;;;;;;5031669;28;20209;-72
2021/12/25 12:09:55;;;;;;;3.30;1.88;;;10.30;99.90;;;;;;5031183;28;20312;-73
2021/12/25 12:12:23;;;;;;;2.65;2.03;;;10.40;99.90;;;;;;5029740;28;20233;-72
2021/12/25 12:15:13;;;;;;;2.53;2.15;;;10.40;99.90;;;;;;5030445;28;20197;-73
2021/12/25 12:17:40;;;;;;;1.83;1.73;;;10.40;99.90;;;;;;5030603;28;20198;-73
2021/12/25 12:20:16;;;;;;;2.15;1.77;;;10.40;99.90;;;;;;5030948;28;20232;-72
2021/12/25 12:23:01;;;;;;;3.75;2.17;;;10.40;99.90;;;;;;5029188;28;20201;-72
2021/12/25 12:25:45;;;;;;;2.10;1.83;;;10.30;99.90;;;;;;5029895;28;20212;-73
2021/12/25 12:28:12;;;;;;;2.17;1.98;;;10.30;99.90;;;;;;5030405;28;20205;-73
2021/12/25 12:30:43;;;;;;;1.83;1.67;;;10.30;99.90;;;;;;5028770;28;20194;-73
2021/12/25 12:33:46;;;;;;;2.17;1.80;;;10.30;99.90;;;;;;5030060;28;20222;-72
2021/12/25 12:36:27;;;;;;;2.30;1.55;;;10.30;99.90;;;;;;5030591;28;20209;-72
2021/12/25 12:39:12;;;;;;;1.85;1.65;;;10.30;99.90;;;;;;5030256;28;20672;-72
2021/12/25 12:41:42;;;;;;;2.13;1.92;;;10.20;99.90;;;;;;5030244;28;20218;-73
2021/12/25 12:44:12;;;;;;;4.10;2.47;;;10.10;99.90;;;;;;5029445;28;20639;-73
2021/12/25 12:47:13;;;;;;;2.00;1.80;;;10.10;99.90;;;;;;5030443;28;20227;-73
2021/12/25 12:50:07;;;;;;;1.75;1.65;;;10.10;99.90;;;;;;5030471;28;20216;-73
2021/12/25 12:52:39;;;;;;;2.90;2.17;;;10.10;99.90;;;;;;5016502;28;20278;-73
2021/12/25 12:55:09;;;;;;;2.78;1.90;;;10.10;99.90;;;;;;5027039;28;20206;-72
2021/12/25 12:57:39;;;;;;;3.05;2.13;;;10.10;99.90;;;;;;5030111;28;20205;-73
2021/12/25 13:00:13;;;;;;;2.42;1.80;;;10.10;99.90;;;;;;5030138;28;20210;-73
2021/12/25 13:02:42;;;;;;;3.28;2.03;;;10.10;99.90;;;;;;5029118;28;20201;-72
2021/12/25 13:05:09;;;;;;;2.08;1.75;;;10.10;99.90;;;;;;5029442;28;20228;-72
2021/12/25 13:07:40;;;;;;;1.55;1.33;;;10.10;99.90;;;;;;5030570;28;20197;-73
2021/12/25 13:10:16;;;;;;;3.55;2.00;;;10.10;99.90;;;;;;5029677;28;20206;-73
2021/12/25 13:12:46;;;;;;;2.08;1.88;;;10.10;99.90;;;;;;5029271;28;20547;-73
2021/12/25 13:15:16;;;;;;;2.63;1.80;;;10.00;99.90;;;;;;5029878;28;20301;-72
2021/12/25 13:17:53;;;;;;;2.10;1.90;;;10.00;99.90;;;;;;5029533;28;20233;-72
2021/12/25 13:20:34;;;;;;;1.67;1.58;;;10.00;99.90;;;;;;5030095;28;20217;-73
2021/12/25 13:23:06;;;;;;;1.60;1.50;;;10.00;99.90;;;;;;5038314;28;20244;-73
2021/12/25 13:25:33;;;;;;;1.52;1.42;;;10.00;99.90;;;;;;5036534;28;20209;-73
2021/12/25 13:28:04;;;;;;;1.83;1.60;;;9.90;99.90;;;;;;5027933;28;20245;-72
2021/12/25 13:30:32;;;;;;;2.53;1.70;;;9.90;99.90;;;;;;5030818;28;20284;-73
2021/12/25 13:33:08;;;;;;;2.70;2.10;;;9.90;99.90;;;;;;5029639;28;20691;-73
2021/12/25 13:35:35;;;;;;;2.20;2.00;;;9.90;99.90;;;;;;5029554;28;20211;-73
2021/12/25 13:38:04;;;;;;;1.95;1.65;;;9.90;99.90;;;;;;5029584;28;20245;-70
2021/12/25 13:40:32;;;;;;;2.28;1.80;;;9.90;99.90;;;;;;5030399;28;20672;-72
2021/12/25 13:43:05;;;;;;;2.00;1.77;;;9.90;99.90;;;;;;5029464;28;20234;-72
2021/12/25 13:45:32;;;;;;;6.20;1.77;;;9.90;99.90;;;;;;5029403;28;20202;-72
2021/12/25 13:47:59;;;;;;;2.15;1.60;;;9.90;99.90;;;;;;5029665;28;20198;-72
2021/12/25 13:50:26;;;;;;;1.65;1.55;;;9.90;99.90;;;;;;5029939;28;20225;-71
2021/12/25 13:52:58;;;;;;;2.83;1.70;;;9.80;99.90;;;;;;5028849;28;20232;-73
2021/12/25 13:55:29;;;;;;;2.00;1.80;;;9.80;99.90;;;;;;5030115;28;20551;-71
2021/12/25 13:57:59;;;;;;;2.10;1.60;;;9.80;99.90;;;;;;5029500;28;20198;-73
2021/12/25 14:00:28;;;;;;;1.70;1.60;;;9.70;99.90;;;;;;5029913;28;20233;-71
2021/12/25 14:02:59;;;;;;;1.80;1.50;;;9.70;99.90;;;;;;5029472;28;20226;-73